createdAt,value
2023-02-03T00:01:59.657Z,8.36
2023-02-03T00:04:30.678Z,8.80
2023-02-03T00:07:01.974Z,8.43
2023-02-03T00:09:32.779Z,8.54
2023-02-03T00:12:08.901Z,8.89
2023-02-03T00:14:40.063Z,8.61
2023-02-03T00:17:11.571Z,8.62
2023-02-03T00:19:41.199Z,8.82
2023-02-03T00:22:11.909Z,9.00
2023-02-03T00:24:42.057Z,8.63
2023-02-03T00:27:12.533Z,8.68
2023-02-03T00:29:41.993Z,9.02
2023-02-03T00:32:12.479Z,8.78
2023-02-03T00:34:43.222Z,8.81
2023-02-03T00:37:16.763Z,9.23
2023-02-03T00:39:47.288Z,8.78
2023-02-03T00:42:18.161Z,8.76
2023-02-03T00:44:47.748Z,8.97
2023-02-03T00:47:18.206Z,9.11
2023-02-03T00:49:48.478Z,9.04
2023-02-03T00:52:18.374Z,8.80
2023-02-03T00:54:47.907Z,8.74
2023-02-03T00:57:18.400Z,9.09
2023-02-03T00:59:48.153Z,9.32
2023-02-03T01:02:18.544Z,8.94
2023-02-03T01:04:48.594Z,9.17
2023-02-03T01:07:19.735Z,8.96
2023-02-03T01:09:48.843Z,9.22
2023-02-03T01:12:18.400Z,9.03
2023-02-03T01:14:47.987Z,8.91
2023-02-03T01:17:18.729Z,9.04
2023-02-03T01:19:48.441Z,9.37
2023-02-03T01:22:18.822Z,9.57
2023-02-03T01:24:48.725Z,9.59
2023-02-03T01:27:18.599Z,9.53
2023-02-03T01:29:50.626Z,9.40
2023-02-03T01:32:19.525Z,9.38
2023-02-03T01:34:48.571Z,9.29
2023-02-03T01:40:20.490Z,9.51
2023-02-03T01:42:52.434Z,9.55
2023-02-03T01:45:25.019Z,9.56
2023-02-03T01:48:04.782Z,9.28
2023-02-03T01:50:43.784Z,9.54
2023-02-03T01:53:15.984Z,9.33
2023-02-03T01:55:51.501Z,9.71
2023-02-03T01:58:32.853Z,9.61
2023-02-03T02:01:04.119Z,9.16
2023-02-03T02:03:59.443Z,9.72
2023-02-03T02:06:30.939Z,9.31
2023-02-03T02:09:03.186Z,9.03
2023-02-03T02:11:35.937Z,9.17
2023-02-03T02:14:04.844Z,9.16
2023-02-03T02:17:01.817Z,8.87
2023-02-03T02:20:08.005Z,9.50
2023-02-03T02:23:20.278Z,9.12
2023-02-03T02:25:56.485Z,8.92
2023-02-03T02:28:56.224Z,9.26
2023-02-03T02:31:42.228Z,9.82
2023-02-03T02:34:20.165Z,9.06
2023-02-03T02:37:00.744Z,9.66
2023-02-03T02:39:48.908Z,9.66
2023-02-03T02:42:32.389Z,9.22
2023-02-03T02:45:19.071Z,9.47
2023-02-03T02:47:49.338Z,9.24
2023-02-03T02:50:28.942Z,9.72
2023-02-03T02:53:01.008Z,9.37
2023-02-03T02:58:21.543Z,9.25
2023-02-03T03:00:51.157Z,9.25
2023-02-03T03:06:14.537Z,9.38
2023-02-03T03:08:51.591Z,9.54
2023-02-03T03:11:21.103Z,9.37
2023-02-03T03:13:55.731Z,9.21
2023-02-03T03:16:28.674Z,9.30
2023-02-03T03:19:04.602Z,9.74
2023-02-03T03:21:41.629Z,9.50
2023-02-03T03:24:15.859Z,9.20
2023-02-03T03:27:05.071Z,9.88
2023-02-03T03:32:25.841Z,9.55
2023-02-03T03:34:56.275Z,9.99
2023-02-03T03:37:35.374Z,9.87
2023-02-03T03:40:13.073Z,9.60
2023-02-03T03:42:52.253Z,10.06
2023-02-03T03:46:02.622Z,9.63
2023-02-03T03:48:54.111Z,9.62
2023-02-03T03:51:48.836Z,9.39
2023-02-03T03:54:24.576Z,9.61
2023-02-03T03:57:15.795Z,10.06
2023-02-03T03:59:50.026Z,9.71
2023-02-03T04:02:22.567Z,9.60
2023-02-03T04:04:52.559Z,9.55
2023-02-03T04:07:22.598Z,9.49
2023-02-03T04:09:52.045Z,9.79
2023-02-03T04:12:24.684Z,9.71
2023-02-03T04:14:55.520Z,9.74
2023-02-03T04:17:24.690Z,9.67
2023-02-03T04:19:55.738Z,9.52
2023-02-03T04:22:25.796Z,9.87
2023-02-03T04:25:01.218Z,10.13
2023-02-03T04:27:31.683Z,9.38
2023-02-03T04:30:02.440Z,10.07
2023-02-03T04:32:32.204Z,9.70
2023-02-03T04:35:03.016Z,9.71
2023-02-03T04:37:32.808Z,9.91
2023-02-03T04:40:03.403Z,10.05
2023-02-03T04:42:32.514Z,9.70
2023-02-03T04:45:02.776Z,9.72
2023-02-03T04:47:32.661Z,9.96
2023-02-03T04:50:03.849Z,10.22
2023-02-03T04:52:33.968Z,9.68
2023-02-03T04:55:03.444Z,9.79
2023-02-03T04:57:32.685Z,9.80
2023-02-03T05:00:02.853Z,10.12
2023-02-03T05:02:35.292Z,10.25
2023-02-03T05:05:05.139Z,10.06
2023-02-03T05:07:36.056Z,10.19
2023-02-03T05:10:06.818Z,10.23
2023-02-03T05:12:38.270Z,9.77
2023-02-03T05:15:35.115Z,10.10
2023-02-03T05:18:06.770Z,10.22
2023-02-03T05:20:37.933Z,10.18
2023-02-03T05:23:08.370Z,10.03
2023-02-03T05:25:38.924Z,9.81
2023-02-03T05:28:08.668Z,9.93
2023-02-03T05:30:38.822Z,10.31
2023-02-03T05:33:10.307Z,9.84
2023-02-03T05:35:39.993Z,9.60
2023-02-03T05:38:12.459Z,9.72
2023-02-03T05:41:01.301Z,9.70
2023-02-03T05:43:31.814Z,9.58
2023-02-03T05:46:05.665Z,9.36
2023-02-03T05:48:37.465Z,9.52
2023-02-03T05:51:10.233Z,9.61
2023-02-03T05:53:40.272Z,9.72
2023-02-03T05:56:11.254Z,9.35
2023-02-03T05:58:44.545Z,9.42
2023-02-03T06:04:02.072Z,9.40
2023-02-03T06:06:36.116Z,9.31
2023-02-03T06:09:08.377Z,9.19
2023-02-03T06:11:38.821Z,9.47
2023-02-03T06:14:09.106Z,9.13
2023-02-03T06:16:38.492Z,9.47
2023-02-03T06:19:09.576Z,9.21
2023-02-03T06:21:38.732Z,9.25
2023-02-03T06:24:12.759Z,8.93
2023-02-03T06:26:42.343Z,8.92
2023-02-03T06:29:12.411Z,8.84
2023-02-03T06:31:44.439Z,8.95
2023-02-03T06:34:14.589Z,8.70
2023-02-03T06:36:46.057Z,8.76
2023-02-03T06:39:16.267Z,8.79
2023-02-03T06:41:46.789Z,8.76
2023-02-03T06:44:17.758Z,8.59
2023-02-03T06:46:48.952Z,8.83
2023-02-03T06:49:20.559Z,8.87
2023-02-03T06:51:53.799Z,8.80
2023-02-03T06:54:30.145Z,8.31
2023-02-03T06:57:02.889Z,8.75
2023-02-03T06:59:34.612Z,8.54
2023-02-03T07:02:04.767Z,8.41
2023-02-03T07:04:36.504Z,8.16
2023-02-03T07:07:08.666Z,8.59
2023-02-03T07:09:38.674Z,8.13
2023-02-03T07:12:10.793Z,8.73
2023-02-03T07:14:40.401Z,8.32
2023-02-03T07:17:12.502Z,8.24
2023-02-03T07:19:46.064Z,8.39
2023-02-03T07:22:16.638Z,8.61
2023-02-03T07:24:48.071Z,8.14
2023-02-03T07:27:16.790Z,8.43
2023-02-03T07:29:47.262Z,8.36
2023-02-03T07:32:16.720Z,8.43
2023-02-03T07:34:48.930Z,8.57
2023-02-03T07:37:19.834Z,8.30
2023-02-03T07:39:51.240Z,8.22
2023-02-03T07:42:20.625Z,8.18
2023-02-03T07:44:54.919Z,8.45
2023-02-03T07:47:25.723Z,8.59
2023-02-03T07:49:57.912Z,8.40
2023-02-03T07:52:32.646Z,8.09
2023-02-03T07:55:04.069Z,8.12
2023-02-03T07:57:35.903Z,8.58
2023-02-03T08:00:06.470Z,8.24
2023-02-03T08:02:47.031Z,8.33
2023-02-03T08:05:17.690Z,8.44
2023-02-03T08:07:47.764Z,8.18
2023-02-03T08:10:20.549Z,8.24
2023-02-03T08:12:51.009Z,8.02
2023-02-03T08:15:20.816Z,8.37
2023-02-03T08:17:52.007Z,8.38
2023-02-03T08:20:22.460Z,8.29
2023-02-03T08:22:52.830Z,8.59
2023-02-03T08:25:22.887Z,8.40
2023-02-03T08:27:54.621Z,8.42
2023-02-03T08:30:23.735Z,8.42
2023-02-03T08:32:55.985Z,8.73
2023-02-03T08:35:30.616Z,8.69
2023-02-03T08:38:02.348Z,8.36
2023-02-03T08:40:32.212Z,8.15
2023-02-03T08:43:02.098Z,8.35
2023-02-03T08:45:31.710Z,8.62
2023-02-03T08:48:02.731Z,8.63
2023-02-03T08:50:32.111Z,8.70
2023-02-03T08:53:02.656Z,8.28
2023-02-03T08:55:32.791Z,8.35
2023-02-03T08:58:02.322Z,8.49
2023-02-03T09:00:32.498Z,8.56
2023-02-03T09:03:02.320Z,8.36
2023-02-03T09:05:34.917Z,8.13
2023-02-03T09:08:04.946Z,8.30
2023-02-03T09:10:34.508Z,8.33
2023-02-03T09:13:03.902Z,8.28
2023-02-03T09:15:38.640Z,8.24
2023-02-03T09:18:08.105Z,8.74
2023-02-03T09:20:38.690Z,8.32
2023-02-03T09:23:08.517Z,8.52
2023-02-03T09:25:45.922Z,8.52
2023-02-03T09:28:15.836Z,8.42
2023-02-03T09:30:44.914Z,8.31
2023-02-03T09:33:14.514Z,8.48
2023-02-03T09:35:43.946Z,8.23
2023-02-03T09:38:12.459Z,8.01
2023-02-03T09:40:43.029Z,8.49
2023-02-03T09:43:14.262Z,8.46
2023-02-03T09:45:45.109Z,7.94
2023-02-03T09:48:24.832Z,8.39
2023-02-03T09:50:55.931Z,8.34
2023-02-03T09:53:46.917Z,8.18
2023-02-03T09:56:38.149Z,7.75
2023-02-03T09:59:07.633Z,8.25
2023-02-03T10:02:03.976Z,8.02
2023-02-03T10:04:46.436Z,8.13
2023-02-03T10:07:42.767Z,7.82
2023-02-03T10:10:37.965Z,7.96
2023-02-03T10:13:30.931Z,7.75
2023-02-03T10:16:16.672Z,8.09
2023-02-03T10:18:57.599Z,7.70
2023-02-03T10:21:57.595Z,7.78
2023-02-03T10:24:44.621Z,7.62
2023-02-03T10:27:24.293Z,7.96
2023-02-03T10:29:58.128Z,8.07
2023-02-03T10:32:32.116Z,7.68
2023-02-03T10:35:02.904Z,7.93
2023-02-03T10:37:38.677Z,7.63
2023-02-03T10:40:12.695Z,8.08
2023-02-03T10:43:04.184Z,8.04
2023-02-03T10:45:38.551Z,7.91
2023-02-03T10:48:15.936Z,7.87
2023-02-03T10:50:52.316Z,7.53
2023-02-03T10:53:32.590Z,7.93
2023-02-03T10:56:14.820Z,7.45
2023-02-03T10:58:56.019Z,7.87
2023-02-03T11:01:48.592Z,7.53
2023-02-03T11:04:32.307Z,7.61
2023-02-03T11:07:07.485Z,8.03
2023-02-03T11:09:43.802Z,7.97
2023-02-03T11:12:18.057Z,7.83
2023-02-03T11:14:54.468Z,7.89
2023-02-03T11:17:30.831Z,8.02
2023-02-03T11:20:18.200Z,7.93
2023-02-03T11:22:49.043Z,8.01
2023-02-03T11:25:33.077Z,7.84
2023-02-03T11:28:07.777Z,8.03
2023-02-03T11:30:39.129Z,8.52
2023-02-03T11:33:20.495Z,8.00
2023-02-03T11:36:06.316Z,7.89
2023-02-03T11:38:43.908Z,7.98
2023-02-03T11:41:24.017Z,8.60
2023-02-03T11:43:56.997Z,8.44
2023-02-03T11:46:33.156Z,8.18
2023-02-03T11:49:20.222Z,8.45
2023-02-03T11:52:20.453Z,8.30
2023-02-03T11:55:10.836Z,7.86
2023-02-03T11:58:15.939Z,8.44
2023-02-03T12:00:56.086Z,8.35
2023-02-03T12:03:53.873Z,8.27
2023-02-03T12:06:50.306Z,8.17
2023-02-03T12:09:48.918Z,8.42
2023-02-03T12:12:35.315Z,8.27
2023-02-03T12:15:23.386Z,7.96
2023-02-03T12:18:08.236Z,8.18
2023-02-03T12:20:51.100Z,8.43
2023-02-03T12:23:28.434Z,8.56
2023-02-03T12:26:11.870Z,8.44
2023-02-03T12:29:07.139Z,7.71
2023-02-03T12:31:43.150Z,7.88
2023-02-03T12:34:30.831Z,7.90
2023-02-03T12:37:28.435Z,7.55
2023-02-03T12:40:13.374Z,8.15
2023-02-03T12:42:55.796Z,7.83
2023-02-03T12:45:32.706Z,7.90
2023-02-03T12:48:13.333Z,8.20
2023-02-03T12:50:49.465Z,8.19
2023-02-03T12:53:33.785Z,7.94
2023-02-03T12:56:08.570Z,7.93
2023-02-03T12:58:45.354Z,8.08
2023-02-03T13:01:38.192Z,7.67
2023-02-03T13:04:26.357Z,8.23
2023-02-03T13:07:04.094Z,8.09
2023-02-03T13:09:44.369Z,8.03
2023-02-03T13:12:38.175Z,7.97
2023-02-03T13:15:40.207Z,7.71
2023-02-03T13:18:35.186Z,8.09
2023-02-03T13:21:06.212Z,7.93
2023-02-03T13:23:37.230Z,8.23
2023-02-03T13:26:34.849Z,8.07
2023-02-03T13:29:24.633Z,8.04
2023-02-03T13:32:23.465Z,7.85
2023-02-03T13:35:14.644Z,7.88
2023-02-03T13:37:53.142Z,7.40
2023-02-03T13:40:49.270Z,7.96
2023-02-03T13:43:38.595Z,7.81
2023-02-03T13:46:24.784Z,7.92
2023-02-03T13:48:59.143Z,7.29
2023-02-03T13:51:37.801Z,8.00
2023-02-03T13:54:31.622Z,7.88
2023-02-03T13:57:03.958Z,8.31
2023-02-03T13:59:46.544Z,7.75
2023-02-03T14:02:25.107Z,7.45
2023-02-03T14:04:59.925Z,7.71
2023-02-03T14:07:40.588Z,7.23
2023-02-03T14:10:26.721Z,7.69
2023-02-03T14:13:04.121Z,7.50
2023-02-03T14:15:36.807Z,7.79
2023-02-03T14:18:36.399Z,7.26
2023-02-03T14:21:18.393Z,7.24
2023-02-03T14:23:53.359Z,7.34
2023-02-03T14:26:25.498Z,6.69
2023-02-03T14:28:59.397Z,7.57
2023-02-03T14:31:31.837Z,7.36
2023-02-03T14:34:16.929Z,7.17
2023-02-03T14:36:56.880Z,7.11
2023-02-03T14:39:41.789Z,7.39
2023-02-03T14:42:53.882Z,7.09
2023-02-03T14:45:41.147Z,6.98
2023-02-03T14:48:28.888Z,7.27
2023-02-03T14:51:04.755Z,7.07
2023-02-03T14:53:54.146Z,7.11
2023-02-03T14:56:54.573Z,7.26
2023-02-03T14:59:30.636Z,7.19
2023-02-03T15:02:14.164Z,7.17
2023-02-03T15:04:53.049Z,7.42
2023-02-03T15:07:50.667Z,6.86
2023-02-03T15:10:31.935Z,6.96
2023-02-03T15:13:02.553Z,7.12
2023-02-03T15:15:34.844Z,7.05
2023-02-03T15:18:23.681Z,6.75
2023-02-03T15:20:56.339Z,6.97
2023-02-03T15:23:44.181Z,6.88
2023-02-03T15:26:24.767Z,6.96
2023-02-03T15:29:03.107Z,7.26
2023-02-03T15:31:36.482Z,7.26
2023-02-03T15:34:21.263Z,6.97
2023-02-03T15:36:56.347Z,7.51
2023-02-03T15:39:30.740Z,7.26
2023-02-03T15:42:04.417Z,7.12
2023-02-03T15:44:40.547Z,6.94
2023-02-03T15:47:30.739Z,6.78
2023-02-03T15:50:40.512Z,6.29
2023-02-03T15:53:41.102Z,6.60
2023-02-03T15:56:35.902Z,6.55
2023-02-03T15:59:36.001Z,6.33
2023-02-03T16:02:24.241Z,6.31
2023-02-03T16:04:53.712Z,7.04
2023-02-03T16:07:30.727Z,6.68
2023-02-03T16:10:02.718Z,7.00
2023-02-03T16:12:33.539Z,6.50
2023-02-03T16:15:04.833Z,6.90
2023-02-03T16:17:37.183Z,6.98
2023-02-03T16:20:13.152Z,6.68
2023-02-03T16:23:08.731Z,6.51
2023-02-03T16:25:39.401Z,6.34
2023-02-03T16:28:35.868Z,6.27
2023-02-03T16:31:36.707Z,5.67
2023-02-03T16:34:38.237Z,5.64
2023-02-03T16:37:40.541Z,6.24
2023-02-03T16:40:36.936Z,6.19
2023-02-03T16:43:31.858Z,6.14
2023-02-03T16:46:20.719Z,6.46
2023-02-03T16:49:09.026Z,6.73
2023-02-03T16:51:44.519Z,6.36
2023-02-03T16:54:19.712Z,6.23
2023-02-03T16:56:51.132Z,6.43
2023-02-03T16:59:22.041Z,6.18
2023-02-03T17:01:51.663Z,6.43
2023-02-03T17:04:20.836Z,6.35
2023-02-03T17:06:52.602Z,6.33
2023-02-03T17:09:25.655Z,6.09
2023-02-03T17:11:56.707Z,6.02
2023-02-03T17:14:28.734Z,5.74
2023-02-03T17:17:01.842Z,5.62
2023-02-03T17:19:32.517Z,5.51
2023-02-03T17:22:03.208Z,5.79
2023-02-03T17:24:32.585Z,5.85
2023-02-03T17:27:02.740Z,5.87
2023-02-03T17:29:32.567Z,6.25
2023-02-03T17:32:02.793Z,6.12
2023-02-03T17:34:34.904Z,6.11
2023-02-03T17:37:04.497Z,5.81
2023-02-03T17:53:31.760Z,5.83
2023-02-03T17:56:15.818Z,5.50
2023-02-03T17:58:46.982Z,5.90
2023-02-03T18:01:20.157Z,5.93
2023-02-03T18:03:56.416Z,5.81
2023-02-03T18:06:31.047Z,6.07
2023-02-03T18:09:03.850Z,5.89
2023-02-03T18:11:35.627Z,5.82
2023-02-03T18:14:06.790Z,5.69
2023-02-03T18:16:36.613Z,6.00
2023-02-03T18:19:11.207Z,5.63
2023-02-03T18:21:41.997Z,6.11
2023-02-03T18:24:15.805Z,5.92
2023-02-03T18:26:53.154Z,5.55
2023-02-03T18:29:25.088Z,5.97
2023-02-03T18:31:54.917Z,6.14
2023-02-03T18:34:24.484Z,6.01
2023-02-03T18:36:54.878Z,5.73
2023-02-03T18:39:24.051Z,5.96
2023-02-03T18:41:54.908Z,5.78
2023-02-03T18:44:28.793Z,6.27
2023-02-03T18:47:07.396Z,6.42
2023-02-03T18:49:37.490Z,5.88
2023-02-03T18:52:07.319Z,5.97
2023-02-03T18:54:37.168Z,5.83
2023-02-03T18:57:07.845Z,5.91
2023-02-03T18:59:36.996Z,6.27
2023-02-03T19:02:06.719Z,5.99
2023-02-03T19:04:36.671Z,5.93
2023-02-03T19:07:06.801Z,6.01
2023-02-03T19:09:36.350Z,5.91
2023-02-03T19:12:06.608Z,5.94
2023-02-03T19:14:36.638Z,5.83
2023-02-03T19:17:06.583Z,6.22
2023-02-03T19:19:35.354Z,5.86
2023-02-03T19:22:04.428Z,5.91
2023-02-03T19:24:34.548Z,6.00
2023-02-03T19:27:03.256Z,6.00
2023-02-03T19:29:33.643Z,5.70
2023-02-03T19:32:04.901Z,5.86
2023-02-03T19:34:35.876Z,5.85
2023-02-03T19:37:05.360Z,5.91
2023-02-03T19:39:34.890Z,6.13
2023-02-03T19:42:04.847Z,6.31
2023-02-03T19:44:34.963Z,6.17
2023-02-03T19:47:04.546Z,6.00
2023-02-03T19:49:33.614Z,6.46
2023-02-03T19:52:04.006Z,6.40
2023-02-03T19:54:33.693Z,5.89
2023-02-03T19:57:04.053Z,5.97
2023-02-03T19:59:33.648Z,6.02
2023-02-03T20:02:13.798Z,6.43
2023-02-03T20:04:44.927Z,6.09
2023-02-03T20:07:14.918Z,6.33
2023-02-03T20:09:44.268Z,6.12
2023-02-03T20:12:14.815Z,6.23
2023-02-03T20:14:44.439Z,6.09
2023-02-03T20:17:14.892Z,6.05
2023-02-03T20:19:44.384Z,6.06
2023-02-03T20:22:13.325Z,5.99
2023-02-03T20:24:43.590Z,6.11
2023-02-03T20:27:13.011Z,6.17
2023-02-03T20:29:43.989Z,6.26
2023-02-03T20:32:14.555Z,6.11
2023-02-03T20:34:43.940Z,6.29
2023-02-03T20:37:14.526Z,6.18
2023-02-03T20:39:44.251Z,6.36
2023-02-03T20:42:20.432Z,5.74
2023-02-03T20:44:49.623Z,6.12
2023-02-03T20:47:23.208Z,6.14
2023-02-03T20:49:53.027Z,6.13
2023-02-03T20:52:23.091Z,5.96
2023-02-03T20:54:52.855Z,6.08
2023-02-03T20:57:23.890Z,6.16
2023-02-03T20:59:53.278Z,6.19
2023-02-03T21:02:46.887Z,6.13
2023-02-03T21:05:38.666Z,5.70
2023-02-03T21:08:16.275Z,5.95
2023-02-03T21:10:46.724Z,6.23
2023-02-03T21:13:21.653Z,6.22
2023-02-03T21:16:01.473Z,6.07
2023-02-03T21:18:48.318Z,5.94
2023-02-03T21:21:44.347Z,5.63
2023-02-03T21:24:38.784Z,5.85
2023-02-03T21:27:31.942Z,5.82
2023-02-03T21:30:09.174Z,6.58
2023-02-03T21:33:39.293Z,6.38
2023-02-03T21:36:20.387Z,6.67
2023-02-03T21:38:59.317Z,6.49
2023-02-03T21:41:34.616Z,6.59
2023-02-03T21:44:04.094Z,6.73
2023-02-03T21:46:34.946Z,6.82
2023-02-03T21:49:04.821Z,6.85
2023-02-03T21:51:40.568Z,6.77
2023-02-03T21:54:35.142Z,6.74
2023-02-03T21:57:04.894Z,6.90
2023-02-03T21:59:48.508Z,6.96
2023-02-03T22:02:40.937Z,6.56
2023-02-03T22:05:17.241Z,6.81
2023-02-03T22:07:48.129Z,7.00
2023-02-03T22:10:17.160Z,6.96
2023-02-03T22:12:46.780Z,7.41
2023-02-03T22:15:16.406Z,7.40
2023-02-03T22:17:49.084Z,7.33
2023-02-03T22:20:20.673Z,6.26
2023-02-03T22:22:51.273Z,6.75
2023-02-03T22:25:20.783Z,7.04
2023-02-03T22:27:50.422Z,6.67
2023-02-03T22:30:21.117Z,7.21
2023-02-03T22:32:51.920Z,6.73
2023-02-03T22:35:20.860Z,6.51
2023-02-03T22:37:53.060Z,6.35
2023-02-03T22:40:24.702Z,6.32
2023-02-03T22:42:58.053Z,6.41
2023-02-03T22:45:31.184Z,6.38
2023-02-03T22:48:03.383Z,6.47
2023-02-03T22:50:35.863Z,6.34
2023-02-03T22:53:07.224Z,6.50
2023-02-03T22:55:39.114Z,6.21
2023-02-03T22:58:09.002Z,6.60
2023-02-03T23:00:39.488Z,6.45
2023-02-03T23:03:09.286Z,6.57
2023-02-03T23:05:39.953Z,6.76
2023-02-03T23:08:10.938Z,6.47
2023-02-03T23:10:41.227Z,6.43
2023-02-03T23:13:12.057Z,6.39
2023-02-03T23:15:42.927Z,6.42
2023-02-03T23:18:12.688Z,6.62
2023-02-03T23:20:42.741Z,6.55
2023-02-03T23:23:13.093Z,6.61
2023-02-03T23:25:43.252Z,6.30
2023-02-03T23:28:12.581Z,6.43
2023-02-03T23:30:41.447Z,6.27
2023-02-03T23:33:13.213Z,6.63
2023-02-03T23:35:50.466Z,6.42
2023-02-03T23:38:20.672Z,6.43
2023-02-03T23:40:52.608Z,6.41
2023-02-03T23:43:22.952Z,6.71
2023-02-03T23:45:52.418Z,6.64
2023-02-03T23:48:21.309Z,6.62
2023-02-03T23:50:52.811Z,6.56
2023-02-03T23:53:22.455Z,6.51
2023-02-03T23:55:52.167Z,6.67
2023-02-03T23:58:22.359Z,6.51
